Havbugvin — XPYL — position and weather

sailwx.info

Track history (hours):
 
Tides and Currents Weather Stations Pressure Air Temp Water Temp Dewpoint Dewpoint Depression Visibility Wind Speed Wind Dir Waves Ship Positions

Havbugvin

Last reported at 2016-Aug-28 16:33 UTC. Time now 2016-Aug-28 16:45 UTC.
Position N 62°04' W 008°50'.

Length 38 m.

Type: Fishing. MMSI: 231181000.

Date/timePositionNaut miles runAvg speedWind from/ knotsBaromVisibWave heightAir tempDewpointWater temp
2016-Aug-28 16:33N 62°04' W 008°50'2 1.5
2016-Aug-28 15:34N 62°02' W 008°48'2 1.6
2016-Aug-28 14:34N 62°01' W 008°48'2 1.6
2016-Aug-28 13:33N 61°59' W 008°47'1 1.2
2016-Aug-28 12:33N 61°59' W 008°44'1 1.2
2016-Aug-28 11:33N 62°00' W 008°45'2 1.7
2016-Aug-28 10:33N 62°02' W 008°46'1 1.2
2016-Aug-28 09:33N 62°03' W 008°47'7 7.4
2016-Aug-28 08:33N 62°10' W 008°50'5 5.1
2016-Aug-28 07:33N 62°05' W 008°50'7 6.6
2016-Aug-28 06:33N 61°59' W 008°44'1 0.5
2016-Aug-28 05:34N 61°59' W 008°45'3 2.7
2016-Aug-28 04:34N 61°57' W 008°43'2 1.6
2016-Aug-28 03:33N 61°56' W 008°41'2 1.6
2016-Aug-28 02:33N 61°54' W 008°40'2 1.7
2016-Aug-28 01:33N 61°53' W 008°38'2 2.3
2016-Aug-28 00:33N 61°55' W 008°40'0 0.2
2016-Aug-27 23:34N 61°55' W 008°40'1 1.2
2016-Aug-27 22:34N 61°56' W 008°41'2 1.5
2016-Aug-27 21:33N 61°57' W 008°43'1 1.2
2016-Aug-27 20:34N 61°58' W 008°44'1 1.2
2016-Aug-27 19:33N 61°57' W 008°45'1 1.4
2016-Aug-27 18:34N 61°56' W 008°44'1 1.3
2016-Aug-27 17:33N 61°55' W 008°42'2 1.6
2016-Aug-27 16:34N 61°53' W 008°40'2 1.7
2016-Aug-27 15:33N 61°52' W 008°39'2 1.7
2016-Aug-27 14:34N 61°50' W 008°37'2 1.7
2016-Aug-27 13:33N 61°49' W 008°35'2 1.6
2016-Aug-27 12:33N 61°48' W 008°33'1 1.2
2016-Aug-27 11:33N 61°47' W 008°31'1 1.0
2016-Aug-27 10:33N 61°48' W 008°31'1 1.4
2016-Aug-27 09:33N 61°49' W 008°33'2 1.7
2016-Aug-27 08:34N 61°51' W 008°35'4 3.6
2016-Aug-27 07:34N 61°54' W 008°39'4 4.1
2016-Aug-27 06:33N 61°57' W 008°44'8 4.1
2016-Aug-27 04:33N 61°50' W 008°34'6 6.0
2016-Aug-27 03:34N 61°46' W 008°26'9 8.9
2016-Aug-27 02:33N 61°39' W 008°12'9 9.0
2016-Aug-27 01:33N 61°33' W 007°58'8 7.8
2016-Aug-27 00:34N 61°28' W 007°46'1 1.2
2016-Aug-26 23:33N 61°29' W 007°45'2 1.7
2016-Aug-26 22:34N 61°30' W 007°43'2 1.7
2016-Aug-26 21:34N 61°32' W 007°41'1 1.5
2016-Aug-26 20:33N 61°32' W 007°38'1 1.5
2016-Aug-26 19:34N 61°31' W 007°35'1 1.2
2016-Aug-26 18:34N 61°30' W 007°35'2 1.7
2016-Aug-26 17:33N 61°29' W 007°37'1 1.4
2016-Aug-26 16:33N 61°27' W 007°38'1 1.2
2016-Aug-26 15:34N 61°27' W 007°40'1 1.2
2016-Aug-26 14:33N 61°28' W 007°41'2 1.6
2016-Aug-26 13:33N 61°29' W 007°39'2 1.6
2016-Aug-26 12:33N 61°31' W 007°38'1 1.1
2016-Aug-26 11:33N 61°32' W 007°39'2 1.5
2016-Aug-26 10:34N 61°30' W 007°40'2 1.6
2016-Aug-26 09:33N 61°29' W 007°42'1 1.5
2016-Aug-26 08:33N 61°28' W 007°43'2 1.5
2016-Aug-26 07:34N 61°26' W 007°45'4 3.5
2016-Aug-26 06:33N 61°30' W 007°44'2 1.1
2016-Aug-26 04:33N 61°29' W 007°40'2 1.5
2016-Aug-26 03:33N 61°29' W 007°43'2 1.9
2016-Aug-26 02:33N 61°28' W 007°47'1 0.5
2016-Aug-26 01:33N 61°28' W 007°47'1 1.0
2016-Aug-26 00:34N 61°28' W 007°46'2 1.5
2016-Aug-25 23:34N 61°27' W 007°43'2 1.6
2016-Aug-25 22:33N 61°26' W 007°41'2 1.5
2016-Aug-25 21:33N 61°25' W 007°38'1 1.3
2016-Aug-25 20:33N 61°24' W 007°36'1 0.9
2016-Aug-25 19:33N 61°24' W 007°34'2 1.6
2016-Aug-25 18:34N 61°23' W 007°31'2 1.6
2016-Aug-25 17:33N 61°22' W 007°29'1 1.5
2016-Aug-25 16:33N 61°22' W 007°26'1 1.2
2016-Aug-25 15:33N 61°23' W 007°26'1 1.5
2016-Aug-25 14:33N 61°24' W 007°29'1 1.5
2016-Aug-25 13:33N 61°24' W 007°32'2 1.6
2016-Aug-25 12:33N 61°25' W 007°34'1 1.4
2016-Aug-25 11:34N 61°26' W 007°37'1 1.4
2016-Aug-25 10:33N 61°27' W 007°39'2 1.6
2016-Aug-25 09:33N 61°28' W 007°42'2 1.6
2016-Aug-25 08:33N 61°29' W 007°45'2 1.7
2016-Aug-25 07:33N 61°29' W 007°48'4 3.9
2016-Aug-25 06:33N 61°27' W 007°42'4 2.0
2016-Aug-25 04:33N 61°25' W 007°34'8 7.8
2016-Aug-25 03:34N 61°29' W 007°48'3 2.9
2016-Aug-25 02:34N 61°27' W 007°52'1 1.1
2016-Aug-25 01:33N 61°27' W 007°50'1 1.4
2016-Aug-25 00:33N 61°27' W 007°47'1 1.3
2016-Aug-24 23:33N 61°27' W 007°44'1 1.4
2016-Aug-24 22:33N 61°26' W 007°42'1 1.4
2016-Aug-24 21:34N 61°25' W 007°39'1 1.3
2016-Aug-24 20:33N 61°24' W 007°37'1 0.8
2016-Aug-24 19:34N 61°24' W 007°39'1 1.3
2016-Aug-24 18:34N 61°24' W 007°41'1 1.4
2016-Aug-24 17:33N 61°25' W 007°44'1 1.4
2016-Aug-24 16:33N 61°26' W 007°47'2 1.5
2016-Aug-24 15:34N 61°27' W 007°49'1 1.3
2016-Aug-24 14:34N 61°28' W 007°51'7 7.3
2016-Aug-24 13:33N 61°24' W 007°38'7 7.1
2016-Aug-24 12:33N 61°28' W 007°50'8 8.1
2016-Aug-24 11:34N 61°35' W 007°53'7 7.3
2016-Aug-24 10:34N 61°42' W 007°57'8 7.5
2016-Aug-24 09:34N 61°50' W 008°02'1 0.9
2016-Aug-24 08:33N 61°50' W 008°01'0 0.2
2016-Aug-24 07:34N 61°50' W 008°01'0 0.3
2016-Aug-24 06:33N 61°50' W 008°01'0 0.2
2016-Aug-24 04:33N 61°50' W 008°01'0 0.4
2016-Aug-24 03:34N 61°50' W 008°01'1 0.6
2016-Aug-24 02:34N 61°50' W 008°00'0 0.3
2016-Aug-24 01:33N 61°50' W 008°00'1 0.5
2016-Aug-24 00:34N 61°50' W 008°02'2 2.0
2016-Aug-23 23:34N 61°50' W 007°57'8 7.7
2016-Aug-23 22:33N 61°52' W 007°41'8 7.9
2016-Aug-23 21:34N 61°54' W 007°25'8 8.1
2016-Aug-23 20:34N 61°55' W 007°08'9 8.6
2016-Aug-23 19:33N 61°55' W 006°50'5 5.4
2016-Aug-23 18:33N 62°00' W 006°46'0 0.0
2016-Aug-23 17:34N 62°00' W 006°46'0 0.0
2016-Aug-23 16:33N 62°00' W 006°46'0 0.0
2016-Aug-23 15:33N 62°00' W 006°46'0 0.0
2016-Aug-23 14:33N 62°00' W 006°46'0 0.0
2016-Aug-23 13:33N 62°00' W 006°46'0 0.0
2016-Aug-23 12:34N 62°00' W 006°46'0 0.2
2016-Aug-23 11:33N 62°00' W 006°46'0 0.0
2016-Aug-23 10:33N 62°00' W 006°46'0 0.0
2016-Aug-23 09:33N 62°00' W 006°46'0 0.0
2016-Aug-23 08:34N 62°00' W 006°46'0 0.0
2016-Aug-23 07:34N 62°00' W 006°46'0 0.0
2016-Aug-23 06:33N 62°00' W 006°46'0 0.0
2016-Aug-23 05:34N 62°00' W 006°46'0 0.0
2016-Aug-23 04:33N 62°00' W 006°46'0 0.0
2016-Aug-23 03:33N 62°00' W 006°46'0 0.0
2016-Aug-23 02:33N 62°00' W 006°46'0 0.0
2016-Aug-23 01:33N 62°00' W 006°46'0 0.0
2016-Aug-23 00:33N 62°00' W 006°46'0 0.0
2016-Aug-22 23:33N 62°00' W 006°46'0 0.0
2016-Aug-22 22:34N 62°00' W 006°46'0 0.0
2016-Aug-22 21:33N 62°00' W 006°46'0 0.0
2016-Aug-22 20:33N 62°00' W 006°46'0 0.0
2016-Aug-22 19:34N 62°00' W 006°46'0 0.0
2016-Aug-22 18:34N 62°00' W 006°46'0 0.0
2016-Aug-22 17:33N 62°00' W 006°46'0 0.0
2016-Aug-22 16:34N 62°00' W 006°46'0 0.0
2016-Aug-22 15:33N 62°00' W 006°46'0 0.0
2016-Aug-22 14:33N 62°00' W 006°46'0 0.0
2016-Aug-22 13:33N 62°00' W 006°46'0 0.0
2016-Aug-22 12:33N 62°00' W 006°46'0 0.0
2016-Aug-22 11:33N 62°00' W 006°46'0 0.0
2016-Aug-22 10:33N 62°00' W 006°46'0 0.0
2016-Aug-22 09:33N 62°00' W 006°46'0 0.0
2016-Aug-22 08:33N 62°00' W 006°46'0 0.0
2016-Aug-22 07:33N 62°00' W 006°46'0 0.0
2016-Aug-22 06:33N 62°00' W 006°46'0 0.0
2016-Aug-22 05:33N 62°00' W 006°46'0 0.0
2016-Aug-22 04:33N 62°00' W 006°46'0 0.0
2016-Aug-22 03:33N 62°00' W 006°46'0 0.0
2016-Aug-22 02:34N 62°00' W 006°46'0 0.0
2016-Aug-22 01:33N 62°00' W 006°46'0 0.0
2016-Aug-22 00:33N 62°00' W 006°46'0 0.0
2016-Aug-21 23:34N 62°00' W 006°46'0 0.0
2016-Aug-21 22:34N 62°00' W 006°46'0 0.0
2016-Aug-21 21:34N 62°00' W 006°46'0 0.0
2016-Aug-21 20:33N 62°00' W 006°46'0 0.0
2016-Aug-21 19:34N 62°00' W 006°46'0 0.0
2016-Aug-21 18:33N 62°00' W 006°46'0 0.0
2016-Aug-21 17:33N 62°00' W 006°46'0 0.0
2016-Aug-21 16:34N 62°00' W 006°46'0 0.0
2016-Aug-21 15:34N 62°00' W 006°46'0 0.0
2016-Aug-21 14:34N 62°00' W 006°46'0 0.0
2016-Aug-21 13:33N 62°00' W 006°46'0 0.0
2016-Aug-21 12:33N 62°00' W 006°46'0 0.0
2016-Aug-21 11:33N 62°00' W 006°46'0 0.0
2016-Aug-21 10:33N 62°00' W 006°46'0 0.0
2016-Aug-21 09:33N 62°00' W 006°46'0 0.0
2016-Aug-21 08:33N 62°00' W 006°46'0 0.0
2016-Aug-21 07:33N 62°00' W 006°46'0 0.0
2016-Aug-21 06:34N 62°00' W 006°46'0 0.0
2016-Aug-21 05:33N 62°00' W 006°46'0 0.0
2016-Aug-21 04:33N 62°00' W 006°46'0 0.0
2016-Aug-21 03:33N 62°00' W 006°46'0 0.0
2016-Aug-21 02:33N 62°00' W 006°46'0 0.0
2016-Aug-21 01:33N 62°00' W 006°46'0 0.0
2016-Aug-21 00:33N 62°00' W 006°46'0 0.0
2016-Aug-20 23:33N 62°00' W 006°46'0 0.0
2016-Aug-20 22:34N 62°00' W 006°46'0 0.0
2016-Aug-20 21:34N 62°00' W 006°46'0 0.0
2016-Aug-20 20:34N 62°00' W 006°46'0 0.0
2016-Aug-20 19:33N 62°00' W 006°46'0 0.0
2016-Aug-20 18:34N 62°00' W 006°46'0 0.0
2016-Aug-20 17:33N 62°00' W 006°46'0 0.0
2016-Aug-20 16:33N 62°00' W 006°46'0 0.0
2016-Aug-20 15:33N 62°00' W 006°46'0 0.0
2016-Aug-20 14:33N 62°00' W 006°46'0 0.0
2016-Aug-20 13:34N 62°00' W 006°46'0 0.0
2016-Aug-20 12:33N 62°00' W 006°46'0 0.0
2016-Aug-20 11:33N 62°00' W 006°46'0 0.0
2016-Aug-20 10:33N 62°00' W 006°46'0 0.0
2016-Aug-20 09:33N 62°00' W 006°46'0 0.0
2016-Aug-20 08:34N 62°00' W 006°46'0 0.0
2016-Aug-20 07:34N 62°00' W 006°46'0 0.0
2016-Aug-20 06:33N 62°00' W 006°46'0 0.0
2016-Aug-20 05:33N 62°00' W 006°46'0 0.0
2016-Aug-20 04:34N 62°00' W 006°46'0 0.0
2016-Aug-20 03:33N 62°00' W 006°46'0 0.0
2016-Aug-20 02:33N 62°00' W 006°46'0 0.0
2016-Aug-20 01:34N 62°00' W 006°46'0 0.0
2016-Aug-20 00:34N 62°00' W 006°46'0 0.0
2016-Aug-19 23:34N 62°00' W 006°46'0 0.0
2016-Aug-19 22:33N 62°00' W 006°46'0 0.0
2016-Aug-19 21:34N 62°00' W 006°46'0 0.0
2016-Aug-19 20:33N 62°00' W 006°46'0 0.0
2016-Aug-19 19:34N 62°00' W 006°46'0 0.0
2016-Aug-19 18:33N 62°00' W 006°46'0 0.0
2016-Aug-19 17:33N 62°00' W 006°46'0 0.0
2016-Aug-19 16:33N 62°00' W 006°46'0 0.0
2016-Aug-19 15:34N 62°00' W 006°46'0 0.0
2016-Aug-19 14:33N 62°00' W 006°46'0 0.2
2016-Aug-19 13:33N 62°00' W 006°46'0 0.0
2016-Aug-19 12:34N 62°00' W 006°46'0 0.0
2016-Aug-19 11:34N 62°00' W 006°46'0 0.0
2016-Aug-19 10:33N 62°00' W 006°46'0 0.0
2016-Aug-19 09:33N 62°00' W 006°46'0 0.0
2016-Aug-19 08:33N 62°00' W 006°46'0 0.0
2016-Aug-19 07:34N 62°00' W 006°46'5 5.1
2016-Aug-19 06:33N 61°55' W 006°49'8 8.0
2016-Aug-19 05:34N 61°56' W 007°06'8 7.5
2016-Aug-19 04:33N 61°54' W 007°22'7 7.5
2016-Aug-19 03:33N 61°52' W 007°37'8 7.6
2016-Aug-19 02:33N 61°49' W 007°52'1 0.7
2016-Aug-19 01:33N 61°49' W 007°50'0 0.4
2016-Aug-19 00:33N 61°49' W 007°50'1 1.1
2016-Aug-18 23:33N 61°50' W 007°50'2 1.6
2016-Aug-18 22:33N 61°50' W 007°54'2 2.5
2016-Aug-18 21:33N 61°50' W 007°59'1 1.0
2016-Aug-18 20:34N 61°50' W 007°57'1 1.5
2016-Aug-18 19:34N 61°49' W 007°54'0 0.2
2016-Aug-18 18:33N 61°50' W 007°54'2 2.1
2016-Aug-18 17:34N 61°49' W 007°59'  
Track history (hours):
 
Tides and Currents Weather Stations Pressure Air Temp Water Temp Dewpoint Dewpoint Depression Visibility Wind Speed Wind Dir Waves Ship Positions

Havbugvin

Last reported at 2016-Aug-28 16:33 UTC. Time now 2016-Aug-28 16:45 UTC.
Position N 62°04' W 008°50'.

Length 38 m.

Type: Fishing. MMSI: 231181000.

Date/timePositionNaut miles runAvg speedWind from/ knotsBaromVisibWave heightAir tempDewpointWater temp
2016-Aug-28 16:33N 62°04' W 008°50'2 1.5
2016-Aug-28 15:34N 62°02' W 008°48'2 1.6
2016-Aug-28 14:34N 62°01' W 008°48'2 1.6
2016-Aug-28 13:33N 61°59' W 008°47'1 1.2
2016-Aug-28 12:33N 61°59' W 008°44'1 1.2
2016-Aug-28 11:33N 62°00' W 008°45'2 1.7
2016-Aug-28 10:33N 62°02' W 008°46'1 1.2
2016-Aug-28 09:33N 62°03' W 008°47'7 7.4
2016-Aug-28 08:33N 62°10' W 008°50'5 5.1
2016-Aug-28 07:33N 62°05' W 008°50'7 6.6
2016-Aug-28 06:33N 61°59' W 008°44'1 0.5
2016-Aug-28 05:34N 61°59' W 008°45'3 2.7
2016-Aug-28 04:34N 61°57' W 008°43'2 1.6
2016-Aug-28 03:33N 61°56' W 008°41'2 1.6
2016-Aug-28 02:33N 61°54' W 008°40'2 1.7
2016-Aug-28 01:33N 61°53' W 008°38'2 2.3
2016-Aug-28 00:33N 61°55' W 008°40'0 0.2
2016-Aug-27 23:34N 61°55' W 008°40'1 1.2
2016-Aug-27 22:34N 61°56' W 008°41'2 1.5
2016-Aug-27 21:33N 61°57' W 008°43'1 1.2
2016-Aug-27 20:34N 61°58' W 008°44'1 1.2
2016-Aug-27 19:33N 61°57' W 008°45'1 1.4
2016-Aug-27 18:34N 61°56' W 008°44'1 1.3
2016-Aug-27 17:33N 61°55' W 008°42'2 1.6
2016-Aug-27 16:34N 61°53' W 008°40'2 1.7
2016-Aug-27 15:33N 61°52' W 008°39'2 1.7
2016-Aug-27 14:34N 61°50' W 008°37'2 1.7
2016-Aug-27 13:33N 61°49' W 008°35'2 1.6
2016-Aug-27 12:33N 61°48' W 008°33'1 1.2
2016-Aug-27 11:33N 61°47' W 008°31'1 1.0
2016-Aug-27 10:33N 61°48' W 008°31'1 1.4
2016-Aug-27 09:33N 61°49' W 008°33'2 1.7
2016-Aug-27 08:34N 61°51' W 008°35'4 3.6
2016-Aug-27 07:34N 61°54' W 008°39'4 4.1
2016-Aug-27 06:33N 61°57' W 008°44'8 4.1
2016-Aug-27 04:33N 61°50' W 008°34'6 6.0
2016-Aug-27 03:34N 61°46' W 008°26'9 8.9
2016-Aug-27 02:33N 61°39' W 008°12'9 9.0
2016-Aug-27 01:33N 61°33' W 007°58'8 7.8
2016-Aug-27 00:34N 61°28' W 007°46'1 1.2
2016-Aug-26 23:33N 61°29' W 007°45'2 1.7
2016-Aug-26 22:34N 61°30' W 007°43'2 1.7
2016-Aug-26 21:34N 61°32' W 007°41'1 1.5
2016-Aug-26 20:33N 61°32' W 007°38'1 1.5
2016-Aug-26 19:34N 61°31' W 007°35'1 1.2
2016-Aug-26 18:34N 61°30' W 007°35'2 1.7
2016-Aug-26 17:33N 61°29' W 007°37'1 1.4
2016-Aug-26 16:33N 61°27' W 007°38'1 1.2
2016-Aug-26 15:34N 61°27' W 007°40'1 1.2
2016-Aug-26 14:33N 61°28' W 007°41'2 1.6
2016-Aug-26 13:33N 61°29' W 007°39'2 1.6
2016-Aug-26 12:33N 61°31' W 007°38'1 1.1
2016-Aug-26 11:33N 61°32' W 007°39'2 1.5
2016-Aug-26 10:34N 61°30' W 007°40'2 1.6
2016-Aug-26 09:33N 61°29' W 007°42'1 1.5
2016-Aug-26 08:33N 61°28' W 007°43'2 1.5
2016-Aug-26 07:34N 61°26' W 007°45'4 3.5
2016-Aug-26 06:33N 61°30' W 007°44'2 1.1
2016-Aug-26 04:33N 61°29' W 007°40'2 1.5
2016-Aug-26 03:33N 61°29' W 007°43'2 1.9
2016-Aug-26 02:33N 61°28' W 007°47'1 0.5
2016-Aug-26 01:33N 61°28' W 007°47'1 1.0
2016-Aug-26 00:34N 61°28' W 007°46'2 1.5
2016-Aug-25 23:34N 61°27' W 007°43'2 1.6
2016-Aug-25 22:33N 61°26' W 007°41'2 1.5
2016-Aug-25 21:33N 61°25' W 007°38'1 1.3
2016-Aug-25 20:33N 61°24' W 007°36'1 0.9
2016-Aug-25 19:33N 61°24' W 007°34'2 1.6
2016-Aug-25 18:34N 61°23' W 007°31'2 1.6
2016-Aug-25 17:33N 61°22' W 007°29'1 1.5
2016-Aug-25 16:33N 61°22' W 007°26'1 1.2
2016-Aug-25 15:33N 61°23' W 007°26'1 1.5
2016-Aug-25 14:33N 61°24' W 007°29'1 1.5
2016-Aug-25 13:33N 61°24' W 007°32'2 1.6
2016-Aug-25 12:33N 61°25' W 007°34'1 1.4
2016-Aug-25 11:34N 61°26' W 007°37'1 1.4
2016-Aug-25 10:33N 61°27' W 007°39'2 1.6
2016-Aug-25 09:33N 61°28' W 007°42'2 1.6
2016-Aug-25 08:33N 61°29' W 007°45'2 1.7
2016-Aug-25 07:33N 61°29' W 007°48'4 3.9
2016-Aug-25 06:33N 61°27' W 007°42'4 2.0
2016-Aug-25 04:33N 61°25' W 007°34'8 7.8
2016-Aug-25 03:34N 61°29' W 007°48'3 2.9
2016-Aug-25 02:34N 61°27' W 007°52'1 1.1
2016-Aug-25 01:33N 61°27' W 007°50'1 1.4
2016-Aug-25 00:33N 61°27' W 007°47'1 1.3
2016-Aug-24 23:33N 61°27' W 007°44'1 1.4
2016-Aug-24 22:33N 61°26' W 007°42'1 1.4
2016-Aug-24 21:34N 61°25' W 007°39'1 1.3
2016-Aug-24 20:33N 61°24' W 007°37'1 0.8
2016-Aug-24 19:34N 61°24' W 007°39'1 1.3
2016-Aug-24 18:34N 61°24' W 007°41'1 1.4
2016-Aug-24 17:33N 61°25' W 007°44'1 1.4
2016-Aug-24 16:33N 61°26' W 007°47'2 1.5
2016-Aug-24 15:34N 61°27' W 007°49'1 1.3
2016-Aug-24 14:34N 61°28' W 007°51'7 7.3
2016-Aug-24 13:33N 61°24' W 007°38'7 7.1
2016-Aug-24 12:33N 61°28' W 007°50'8 8.1
2016-Aug-24 11:34N 61°35' W 007°53'7 7.3
2016-Aug-24 10:34N 61°42' W 007°57'8 7.5
2016-Aug-24 09:34N 61°50' W 008°02'1 0.9
2016-Aug-24 08:33N 61°50' W 008°01'0 0.2
2016-Aug-24 07:34N 61°50' W 008°01'0 0.3
2016-Aug-24 06:33N 61°50' W 008°01'0 0.2
2016-Aug-24 04:33N 61°50' W 008°01'0 0.4
2016-Aug-24 03:34N 61°50' W 008°01'1 0.6
2016-Aug-24 02:34N 61°50' W 008°00'0 0.3
2016-Aug-24 01:33N 61°50' W 008°00'1 0.5
2016-Aug-24 00:34N 61°50' W 008°02'2 2.0
2016-Aug-23 23:34N 61°50' W 007°57'8 7.7
2016-Aug-23 22:33N 61°52' W 007°41'8 7.9
2016-Aug-23 21:34N 61°54' W 007°25'8 8.1
2016-Aug-23 20:34N 61°55' W 007°08'9 8.6
2016-Aug-23 19:33N 61°55' W 006°50'5 5.4
2016-Aug-23 18:33N 62°00' W 006°46'0 0.0
2016-Aug-23 17:34N 62°00' W 006°46'0 0.0
2016-Aug-23 16:33N 62°00' W 006°46'0 0.0
2016-Aug-23 15:33N 62°00' W 006°46'0 0.0
2016-Aug-23 14:33N 62°00' W 006°46'0 0.0
2016-Aug-23 13:33N 62°00' W 006°46'0 0.0
2016-Aug-23 12:34N 62°00' W 006°46'0 0.2
2016-Aug-23 11:33N 62°00' W 006°46'0 0.0
2016-Aug-23 10:33N 62°00' W 006°46'0 0.0
2016-Aug-23 09:33N 62°00' W 006°46'0 0.0
2016-Aug-23 08:34N 62°00' W 006°46'0 0.0
2016-Aug-23 07:34N 62°00' W 006°46'0 0.0
2016-Aug-23 06:33N 62°00' W 006°46'0 0.0
2016-Aug-23 05:34N 62°00' W 006°46'0 0.0
2016-Aug-23 04:33N 62°00' W 006°46'0 0.0
2016-Aug-23 03:33N 62°00' W 006°46'0 0.0
2016-Aug-23 02:33N 62°00' W 006°46'0 0.0
2016-Aug-23 01:33N 62°00' W 006°46'0 0.0
2016-Aug-23 00:33N 62°00' W 006°46'0 0.0
2016-Aug-22 23:33N 62°00' W 006°46'0 0.0
2016-Aug-22 22:34N 62°00' W 006°46'0 0.0
2016-Aug-22 21:33N 62°00' W 006°46'0 0.0
2016-Aug-22 20:33N 62°00' W 006°46'0 0.0
2016-Aug-22 19:34N 62°00' W 006°46'0 0.0
2016-Aug-22 18:34N 62°00' W 006°46'0 0.0
2016-Aug-22 17:33N 62°00' W 006°46'0 0.0
2016-Aug-22 16:34N 62°00' W 006°46'0 0.0
2016-Aug-22 15:33N 62°00' W 006°46'0 0.0
2016-Aug-22 14:33N 62°00' W 006°46'0 0.0
2016-Aug-22 13:33N 62°00' W 006°46'0 0.0
2016-Aug-22 12:33N 62°00' W 006°46'0 0.0
2016-Aug-22 11:33N 62°00' W 006°46'0 0.0
2016-Aug-22 10:33N 62°00' W 006°46'0 0.0
2016-Aug-22 09:33N 62°00' W 006°46'0 0.0
2016-Aug-22 08:33N 62°00' W 006°46'0 0.0
2016-Aug-22 07:33N 62°00' W 006°46'0 0.0
2016-Aug-22 06:33N 62°00' W 006°46'0 0.0
2016-Aug-22 05:33N 62°00' W 006°46'0 0.0
2016-Aug-22 04:33N 62°00' W 006°46'0 0.0
2016-Aug-22 03:33N 62°00' W 006°46'0 0.0
2016-Aug-22 02:34N 62°00' W 006°46'0 0.0
2016-Aug-22 01:33N 62°00' W 006°46'0 0.0
2016-Aug-22 00:33N 62°00' W 006°46'0 0.0
2016-Aug-21 23:34N 62°00' W 006°46'0 0.0
2016-Aug-21 22:34N 62°00' W 006°46'0 0.0
2016-Aug-21 21:34N 62°00' W 006°46'0 0.0
2016-Aug-21 20:33N 62°00' W 006°46'0 0.0
2016-Aug-21 19:34N 62°00' W 006°46'0 0.0
2016-Aug-21 18:33N 62°00' W 006°46'0 0.0
2016-Aug-21 17:33N 62°00' W 006°46'0 0.0
2016-Aug-21 16:34N 62°00' W 006°46'0 0.0
2016-Aug-21 15:34N 62°00' W 006°46'0 0.0
2016-Aug-21 14:34N 62°00' W 006°46'0 0.0
2016-Aug-21 13:33N 62°00' W 006°46'0 0.0
2016-Aug-21 12:33N 62°00' W 006°46'0 0.0
2016-Aug-21 11:33N 62°00' W 006°46'0 0.0
2016-Aug-21 10:33N 62°00' W 006°46'0 0.0
2016-Aug-21 09:33N 62°00' W 006°46'0 0.0
2016-Aug-21 08:33N 62°00' W 006°46'0 0.0
2016-Aug-21 07:33N 62°00' W 006°46'0 0.0
2016-Aug-21 06:34N 62°00' W 006°46'0 0.0
2016-Aug-21 05:33N 62°00' W 006°46'0 0.0
2016-Aug-21 04:33N 62°00' W 006°46'0 0.0
2016-Aug-21 03:33N 62°00' W 006°46'0 0.0
2016-Aug-21 02:33N 62°00' W 006°46'0 0.0
2016-Aug-21 01:33N 62°00' W 006°46'0 0.0
2016-Aug-21 00:33N 62°00' W 006°46'0 0.0
2016-Aug-20 23:33N 62°00' W 006°46'0 0.0
2016-Aug-20 22:34N 62°00' W 006°46'0 0.0
2016-Aug-20 21:34N 62°00' W 006°46'0 0.0
2016-Aug-20 20:34N 62°00' W 006°46'0 0.0
2016-Aug-20 19:33N 62°00' W 006°46'0 0.0
2016-Aug-20 18:34N 62°00' W 006°46'0 0.0
2016-Aug-20 17:33N 62°00' W 006°46'0 0.0
2016-Aug-20 16:33N 62°00' W 006°46'0 0.0
2016-Aug-20 15:33N 62°00' W 006°46'0 0.0
2016-Aug-20 14:33N 62°00' W 006°46'0 0.0
2016-Aug-20 13:34N 62°00' W 006°46'0 0.0
2016-Aug-20 12:33N 62°00' W 006°46'0 0.0
2016-Aug-20 11:33N 62°00' W 006°46'0 0.0
2016-Aug-20 10:33N 62°00' W 006°46'0 0.0
2016-Aug-20 09:33N 62°00' W 006°46'0 0.0
2016-Aug-20 08:34N 62°00' W 006°46'0 0.0
2016-Aug-20 07:34N 62°00' W 006°46'0 0.0
2016-Aug-20 06:33N 62°00' W 006°46'0 0.0
2016-Aug-20 05:33N 62°00' W 006°46'0 0.0
2016-Aug-20 04:34N 62°00' W 006°46'0 0.0
2016-Aug-20 03:33N 62°00' W 006°46'0 0.0
2016-Aug-20 02:33N 62°00' W 006°46'0 0.0
2016-Aug-20 01:34N 62°00' W 006°46'0 0.0
2016-Aug-20 00:34N 62°00' W 006°46'0 0.0
2016-Aug-19 23:34N 62°00' W 006°46'0 0.0
2016-Aug-19 22:33N 62°00' W 006°46'0 0.0
2016-Aug-19 21:34N 62°00' W 006°46'0 0.0
2016-Aug-19 20:33N 62°00' W 006°46'0 0.0
2016-Aug-19 19:34N 62°00' W 006°46'0 0.0
2016-Aug-19 18:33N 62°00' W 006°46'0 0.0
2016-Aug-19 17:33N 62°00' W 006°46'0 0.0
2016-Aug-19 16:33N 62°00' W 006°46'0 0.0
2016-Aug-19 15:34N 62°00' W 006°46'0 0.0
2016-Aug-19 14:33N 62°00' W 006°46'0 0.2
2016-Aug-19 13:33N 62°00' W 006°46'0 0.0
2016-Aug-19 12:34N 62°00' W 006°46'0 0.0
2016-Aug-19 11:34N 62°00' W 006°46'0 0.0
2016-Aug-19 10:33N 62°00' W 006°46'0 0.0
2016-Aug-19 09:33N 62°00' W 006°46'0 0.0
2016-Aug-19 08:33N 62°00' W 006°46'0 0.0
2016-Aug-19 07:34N 62°00' W 006°46'5 5.1
2016-Aug-19 06:33N 61°55' W 006°49'8 8.0
2016-Aug-19 05:34N 61°56' W 007°06'8 7.5
2016-Aug-19 04:33N 61°54' W 007°22'7 7.5
2016-Aug-19 03:33N 61°52' W 007°37'8 7.6
2016-Aug-19 02:33N 61°49' W 007°52'1 0.7
2016-Aug-19 01:33N 61°49' W 007°50'0 0.4
2016-Aug-19 00:33N 61°49' W 007°50'1 1.1
2016-Aug-18 23:33N 61°50' W 007°50'2 1.6
2016-Aug-18 22:33N 61°50' W 007°54'2 2.5
2016-Aug-18 21:33N 61°50' W 007°59'1 1.0
2016-Aug-18 20:34N 61°50' W 007°57'1 1.5
2016-Aug-18 19:34N 61°49' W 007°54'0 0.2
2016-Aug-18 18:33N 61°50' W 007°54'2 2.1
2016-Aug-18 17:34N 61°49' W 007°59'  

Dump ship's entire track history